1855 Hurricane NOT_NAMED (1855270N33309)


IBTrACS version v04r00. Visit IBTrACS website for data access.
Please direct all questions to the IBTrACS Q and A forum

Storm track - Intensity - Wind Radii - Intensity Data - Source Data - All data

Summary Information

Storm ID 1855270N33309
Start Sep 26 12Z
Max Intensity 80 kt (Oct 15 06Z)
End Oct 19 00Z
ATCF IDs
Track status Best track data.

Storm track plot

Map of storm track

Intensity plots

Map of storm track

Radial wind information

No radial wind information for this storm


Position and Intensity Table

BASIN ISO_TIME_________ NATURE LAT LON MLC WIND
degrees north degrees east kts
NA 1855-09-26 12:00:00 TS 33.40 -51.00 30
NA 15:00:00 TS 33.45 -50.86 30
NA 18:00:00 TS 33.50 -50.70 30
NA 21:00:00 TS 33.55 -50.51 30
NA 1855-09-27 00:00:00 TS 33.60 -50.30 30
NA 03:00:00 TS 33.66 -50.10 32
NA 06:00:00 TS 33.70 -49.90 35
NA 09:00:00 TS 33.69 -49.68 35
NA 12:00:00 TS 33.70 -49.50 35
NA 15:00:00 TS 33.78 -49.38 35
NA 18:00:00 TS 33.90 -49.30 35
NA 21:00:00 TS 34.00 -49.24 35
NA 1855-09-28 00:00:00 TS 34.10 -49.20 35
NA 03:00:00 TS 34.20 -49.15 40
NA 06:00:00 TS 34.30 -49.10 45
NA 09:00:00 TS 34.40 -49.06 45
NA 12:00:00 TS 34.50 -49.00 45
NA 15:00:00 TS 34.61 -48.90 45
NA 18:00:00 TS 34.70 -48.80 45
NA 21:00:00 TS 34.76 -48.74 45
NA 1855-09-29 00:00:00 TS 34.80 -48.70 45
NA 03:00:00 TS 34.85 -48.65 47
NA 06:00:00 TS 34.90 -48.60 50
NA 09:00:00 TS 34.94 -48.56 50
NA 12:00:00 TS 35.00 -48.50 50
NA 15:00:00 TS 35.10 -48.41 50
NA 18:00:00 TS 35.20 -48.30 50
NA 21:00:00 TS 35.26 -48.20 50
NA 1855-09-30 00:00:00 TS 35.30 -48.10 50
NA 03:00:00 TS 35.35 -48.00 52
NA 06:00:00 TS 35.40 -47.90 55
NA 09:00:00 TS 35.45 -47.81 55
NA 12:00:00 TS 35.50 -47.70 55
NA 15:00:00 TS 35.56 -47.56 50
NA 18:00:00 TS 35.60 -47.40 45
NA 21:00:00 TS 35.61 -47.25 45
NA 1855-10-01 00:00:00 TS 35.60 -47.10 45
NA 03:00:00 TS 35.60 -46.95 45
NA 06:00:00 TS 35.60 -46.80 45
NA 09:00:00 TS 35.59 -46.64 42
NA 12:00:00 TS 35.60 -46.50 40
NA 15:00:00 TS 35.65 -46.39 40
NA 18:00:00 TS 35.70 -46.30 40
NA 21:00:00 TS 35.71 -46.25 40
NA 1855-10-02 00:00:00 TS 35.70 -46.20 40
NA 03:00:00 TS 35.70 -46.10 40
NA 06:00:00 TS 35.70 -46.00 40
NA 09:00:00 TS 35.69 -45.94 37
NA 12:00:00 TS 35.70 -45.90 35
NA 15:00:00 TS 35.75 -45.85 35
NA 18:00:00 TS 35.80 -45.80 35
NA 21:00:00 TS 35.81 -45.75 35
NA 1855-10-03 00:00:00 TS 35.80 -45.70 35
NA 03:00:00 TS 35.80 -45.65 35
NA 06:00:00 TS 35.80 -45.60 35
NA 09:00:00 TS 35.79 -45.54 35
NA 12:00:00 TS 35.80 -45.50 35
NA 15:00:00 TS 35.84 -45.49 35
NA 18:00:00 TS 35.90 -45.50 35
NA 21:00:00 TS 35.95 -45.50 35
NA 1855-10-04 00:00:00 TS 36.00 -45.50 35
NA 03:00:00 TS 36.05 -45.50 32
NA 06:00:00 TS 36.10 -45.50 30
NA 09:00:00 TS 36.15 -45.50 30
NA 12:00:00 TS 36.20 -45.50 30
NA 15:00:00 TS 36.25 -45.49 30
NA 18:00:00 TS 36.30 -45.50 30
NA 21:00:00 TS 36.35 -45.55 30
NA 1855-10-05 00:00:00 TS 36.40 -45.60 30
NA 03:00:00 TS 36.45 -45.60 32
NA 06:00:00 TS 36.50 -45.60 35
NA 09:00:00 TS 36.57 -45.65 35
NA 12:00:00 TS 36.60 -45.70 35
NA 15:00:00 TS 36.51 -45.70 35
NA 18:00:00 TS 36.40 -45.70 35
NA 21:00:00 TS 36.34 -45.75 35
NA 1855-10-06 00:00:00 TS 36.30 -45.80 35
NA 03:00:00 TS 36.25 -45.81 40
NA 06:00:00 TS 36.20 -45.80 45
NA 09:00:00 TS 36.16 -45.79 45
NA 12:00:00 TS 36.10 -45.80 45
NA 15:00:00 TS 36.00 -45.85 45
NA 18:00:00 TS 35.90 -45.90 45
NA 21:00:00 TS 35.85 -45.90 45
NA 1855-10-07 00:00:00 TS 35.80 -45.90 45
NA 03:00:00 TS 35.70 -45.95 50
NA 06:00:00 TS 35.60 -46.00 55
NA 09:00:00 TS 35.55 -46.01 55
NA 12:00:00 TS 35.50 -46.00 55
NA 15:00:00 TS 35.40 -46.00 55
NA 18:00:00 TS 35.30 -46.00 55
NA 21:00:00 TS 35.25 -46.00 55
NA 1855-10-08 00:00:00 TS 35.20 -46.00 55
NA 03:00:00 TS 35.10 -46.00 55
NA 06:00:00 TS 35.00 -46.00 55
NA 09:00:00 TS 34.95 -46.00 55
NA 12:00:00 TS 34.90 -46.00 55
NA 15:00:00 TS 34.81 -46.00 55
NA 18:00:00 TS 34.70 -46.00 55
NA 21:00:00 TS 34.60 -46.00 55
NA 1855-10-09 00:00:00 TS 34.50 -46.00 55
NA 03:00:00 TS 34.39 -46.00 55
NA 06:00:00 TS 34.30 -46.00 55
NA 09:00:00 TS 34.25 -46.00 55
NA 12:00:00 TS 34.20 -46.00 55
NA 15:00:00 TS 34.10 -46.00 55
NA 18:00:00 TS 34.00 -46.00 55
NA 21:00:00 TS 33.95 -46.00 55
NA 1855-10-10 00:00:00 TS 33.90 -46.00 55
NA 03:00:00 TS 33.80 -46.00 55
NA 06:00:00 TS 33.70 -46.00 55
NA 09:00:00 TS 33.66 -46.02 55
NA 12:00:00 TS 33.60 -46.00 55
NA 15:00:00 TS 33.42 -45.91 55
NA 18:00:00 TS 33.20 -45.80 55
NA 21:00:00 TS 33.00 -45.70 55
NA 1855-10-11 00:00:00 TS 32.80 -45.60 55
NA 03:00:00 TS 32.61 -45.50 55
NA 06:00:00 TS 32.40 -45.40 55
NA 09:00:00 TS 32.15 -45.28 55
NA 12:00:00 TS 31.90 -45.20 55
NA 15:00:00 TS 31.69 -45.19 55
NA 18:00:00 TS 31.50 -45.20 55
NA 21:00:00 TS 31.30 -45.21 55
NA 1855-10-12 00:00:00 TS 31.10 -45.20 55
NA 03:00:00 TS 30.90 -45.15 55
NA 06:00:00 TS 30.70 -45.10 55
NA 09:00:00 TS 30.49 -45.11 55
NA 12:00:00 TS 30.30 -45.10 55
NA 15:00:00 TS 30.14 -45.01 55
NA 18:00:00 TS 30.00 -44.90 55
NA 21:00:00 TS 29.90 -44.84 55
NA 1855-10-13 00:00:00 TS 29.80 -44.80 55
NA 03:00:00 TS 29.65 -44.75 55
NA 06:00:00 TS 29.50 -44.70 55
NA 09:00:00 TS 29.36 -44.66 55
NA 12:00:00 TS 29.30 -44.60 55
NA 15:00:00 TS 29.38 -44.51 55
NA 18:00:00 TS 29.50 -44.40 55
NA 21:00:00 TS 29.56 -44.29 55
NA 1855-10-14 00:00:00 TS 29.60 -44.20 55
NA 03:00:00 TS 29.65 -44.14 57
NA 06:00:00 TS 29.70 -44.10 60
NA 09:00:00 TS 29.73 -44.06 60
NA 12:00:00 TS 29.80 -44.00 60
NA 15:00:00 TS 29.94 -43.90 65
NA 18:00:00 TS 30.10 -43.80 70
NA 21:00:00 TS 30.20 -43.74 72
NA 1855-10-15 00:00:00 TS 30.30 -43.70 75
NA 03:00:00 TS 30.45 -43.65 77
NA 06:00:00 TS 30.60 -43.60 80
NA 09:00:00 TS 30.69 -43.56 80
NA 12:00:00 TS 30.80 -43.50 80
NA 15:00:00 TS 30.99 -43.40 80
NA 18:00:00 TS 31.20 -43.30 80
NA 21:00:00 TS 31.36 -43.24 80
NA 1855-10-16 00:00:00 TS 31.50 -43.20 80
NA 03:00:00 TS 31.65 -43.15 80
NA 06:00:00 TS 31.80 -43.10 80
NA 09:00:00 TS 31.95 -43.11 80
NA 12:00:00 TS 32.10 -43.00 80
NA 15:00:00 TS 32.25 -42.61 80
NA 18:00:00 TS 32.40 -42.10 80
NA 21:00:00 TS 32.55 -41.65 77
NA 1855-10-17 00:00:00 TS 32.70 -41.20 75
NA 03:00:00 TS 32.85 -40.75 75
NA 06:00:00 TS 33.00 -40.30 75
NA 09:00:00 TS 33.13 -39.81 72
NA 12:00:00 TS 33.30 -39.40 70
NA 15:00:00 TS 33.58 -39.15 70
NA 18:00:00 TS 33.90 -39.00 70
NA 21:00:00 TS 34.20 -38.85 65
NA 1855-10-18 00:00:00 TS 34.50 -38.70 60
NA 03:00:00 TS 34.80 -38.50 60
NA 06:00:00 TS 35.10 -38.30 60
NA 09:00:00 TS 35.33 -38.13 55
NA 12:00:00 TS 35.70 -38.00 50
NA 15:00:00 TS 36.39 -37.89 45
NA 18:00:00 TS 37.20 -37.80 40
NA 21:00:00 TS 37.93 -37.74 37
NA 1855-10-19 00:00:00 TS 38.60 -37.70 35

Source Information

Agency Information
USA
TOKYO
CMA
HKO
NEWDELHI
REUNION
BOM
NADI
WELLINGTON
DS824
TD9636
TD9635
NEUMANN
MLC

All available IBTrACS Data

SEASON BASIN SUBBASIN ISO_TIME_________ NATURE LAT LON DIST2LAND LANDFALL IFLAG USA SSHS MLC LAT MLC LON MLC CLASS MLC WIND STORM SPEED STORM DIR
Year degrees north degrees east km km 1 degrees north degrees east kts kts degrees
1855 NA NA 1855-09-26 12:00:00 TS 33.40 -51.00 1480 1480 _____________O -1 33.40 -51.00 TD 30 3 68
1855 NA NA 15:00:00 TS 33.45 -50.86 1470 1470 _____________P -1 33.45 -50.86 TD 30 3 68
1855 NA NA 18:00:00 TS 33.50 -50.70 1473 1473 _____________O -1 33.50 -50.70 TD 30 3 71
1855 NA NA 21:00:00 TS 33.55 -50.51 1464 1464 _____________P -1 33.55 -50.51 TD 30 3 73
1855 NA NA 1855-09-27 00:00:00 TS 33.60 -50.30 1467 1459 _____________O -1 33.60 -50.30 TD 30 4 72
1855 NA NA 03:00:00 TS 33.66 -50.10 1459 1459 _____________P -1 33.66 -50.10 TD 32 3 73
1855 NA NA 06:00:00 TS 33.70 -49.90 1462 1462 _____________O -1 33.70 -49.90 TS 35 3 84
1855 NA NA 09:00:00 TS 33.69 -49.68 1465 1465 _____________P -1 33.69 -49.68 TS 35 3 90
1855 NA NA 12:00:00 TS 33.70 -49.50 1468 1459 _____________O -1 33.70 -49.50 TS 35 3 70
1855 NA NA 15:00:00 TS 33.78 -49.38 1459 1450 _____________P -1 33.78 -49.38 TS 35 3 40
1855 NA NA 18:00:00 TS 33.90 -49.30 1450 1439 _____________O -1 33.90 -49.30 TS 35 2 28
1855 NA NA 21:00:00 TS 34.00 -49.24 1441 1430 _____________P -1 34.00 -49.24 TS 35 2 23
1855 NA NA 1855-09-28 00:00:00 TS 34.10 -49.20 1430 1420 _____________O -1 34.10 -49.20 TS 35 2 23
1855 NA NA 03:00:00 TS 34.20 -49.15 1422 1411 _____________P -1 34.20 -49.15 TS 40 2 23
1855 NA NA 06:00:00 TS 34.30 -49.10 1411 1400 _____________O -1 34.30 -49.10 TS 45 2 23
1855 NA NA 09:00:00 TS 34.40 -49.06 1400 1391 _____________P -1 34.40 -49.06 TS 45 2 23
1855 NA NA 12:00:00 TS 34.50 -49.00 1391 1380 _____________O -1 34.50 -49.00 TS 45 2 33
1855 NA NA 15:00:00 TS 34.61 -48.90 1382 1372 _____________P -1 34.61 -48.90 TS 45 3 40
1855 NA NA 18:00:00 TS 34.70 -48.80 1374 1365 _____________O -1 34.70 -48.80 TS 45 2 41
1855 NA NA 21:00:00 TS 34.76 -48.74 1365 1365 _____________P -1 34.76 -48.74 TS 45 1 37
1855 NA NA 1855-09-29 00:00:00 TS 34.80 -48.70 1365 1365 _____________O -1 34.80 -48.70 TS 45 1 39
1855 NA NA 03:00:00 TS 34.85 -48.65 1357 1357 _____________P -1 34.85 -48.65 TS 47 1 37
1855 NA NA 06:00:00 TS 34.90 -48.60 1357 1357 _____________O -1 34.90 -48.60 TS 50 1 39
1855 NA NA 09:00:00 TS 34.94 -48.56 1357 1348 _____________P -1 34.94 -48.56 TS 50 1 37
1855 NA NA 12:00:00 TS 35.00 -48.50 1348 1338 _____________O -1 35.00 -48.50 TS 50 2 39
1855 NA NA 15:00:00 TS 35.10 -48.41 1340 1329 _____________P -1 35.10 -48.41 TS 50 3 40
1855 NA NA 18:00:00 TS 35.20 -48.30 1332 1324 _____________O -1 35.20 -48.30 TS 50 2 47
1855 NA NA 21:00:00 TS 35.26 -48.20 1324 1324 _____________P -1 35.26 -48.20 TS 50 2 58
1855 NA NA 1855-09-30 00:00:00 TS 35.30 -48.10 1327 1327 _____________O -1 35.30 -48.10 TS 50 2 60
1855 NA NA 03:00:00 TS 35.35 -48.00 1329 1319 _____________P -1 35.35 -48.00 TS 52 2 58
1855 NA NA 06:00:00 TS 35.40 -47.90 1321 1321 _____________O -1 35.40 -47.90 TS 55 2 57
1855 NA NA 09:00:00 TS 35.45 -47.81 1324 1314 _____________P -1 35.45 -47.81 TS 55 2 58
1855 NA NA 12:00:00 TS 35.50 -47.70 1316 1309 _____________O -1 35.50 -47.70 TS 55 2 62
1855 NA NA 15:00:00 TS 35.56 -47.56 1309 1309 _____________P -1 35.56 -47.56 TS 50 3 68
1855 NA NA 18:00:00 TS 35.60 -47.40 1315 1315 _____________O -1 35.60 -47.40 TS 45 3 79
1855 NA NA 21:00:00 TS 35.61 -47.25 1321 1321 _____________P -1 35.61 -47.25 TS 45 2 90
1855 NA NA 1855-10-01 00:00:00 TS 35.60 -47.10 1324 1324 _____________O -1 35.60 -47.10 TS 45 2 92
1855 NA NA 03:00:00 TS 35.60 -46.95 1331 1327 _____________P -1 35.60 -46.95 TS 45 2 90
1855 NA NA 06:00:00 TS 35.60 -46.80 1334 1334 _____________O -1 35.60 -46.80 TS 45 2 92
1855 NA NA 09:00:00 TS 35.59 -46.64 1341 1341 _____________P -1 35.59 -46.64 TS 42 2 90
1855 NA NA 12:00:00 TS 35.60 -46.50 1344 1344 _____________O -1 35.60 -46.50 TS 40 2 75
1855 NA NA 15:00:00 TS 35.65 -46.39 1347 1337 _____________P -1 35.65 -46.39 TS 40 2 58
1855 NA NA 18:00:00 TS 35.70 -46.30 1341 1341 _____________O -1 35.70 -46.30 TS 40 1 63
1855 NA NA 21:00:00 TS 35.71 -46.25 1344 1344 _____________P -1 35.71 -46.25 TS 40 1 90
1855 NA NA 1855-10-02 00:00:00 TS 35.70 -46.20 1344 1344 _____________O -1 35.70 -46.20 TS 40 1 94
1855 NA NA 03:00:00 TS 35.70 -46.10 1348 1348 _____________P -1 35.70 -46.10 TS 40 2 90
1855 NA NA 06:00:00 TS 35.70 -46.00 1351 1351 _____________O -1 35.70 -46.00 TS 40 1 93
1855 NA NA 09:00:00 TS 35.69 -45.94 1355 1355 _____________P -1 35.69 -45.94 TS 37 1 90
1855 NA NA 12:00:00 TS 35.70 -45.90 1355 1355 _____________O -1 35.70 -45.90 TS 35 1 54
1855 NA NA 15:00:00 TS 35.75 -45.85 1345 1345 _____________P -1 35.75 -45.85 TS 35 1 37
1855 NA NA 18:00:00 TS 35.80 -45.80 1349 1349 _____________O -1 35.80 -45.80 TS 35 1 54
1855 NA NA 21:00:00 TS 35.81 -45.75 1353 1353 _____________P -1 35.81 -45.75 TS 35 1 90
1855 NA NA 1855-10-03 00:00:00 TS 35.80 -45.70 1353 1353 _____________O -1 35.80 -45.70 TS 35 1 95
1855 NA NA 03:00:00 TS 35.80 -45.65 1356 1356 _____________P -1 35.80 -45.65 TS 35 1 90
1855 NA NA 06:00:00 TS 35.80 -45.60 1356 1356 _____________O -1 35.80 -45.60 TS 35 1 95
1855 NA NA 09:00:00 TS 35.79 -45.54 1360 1360 _____________P -1 35.79 -45.54 TS 35 1 90
1855 NA NA 12:00:00 TS 35.80 -45.50 1360 1360 _____________O -1 35.80 -45.50 TS 35 1 43
1855 NA NA 15:00:00 TS 35.84 -45.49 1360 1350 _____________P -1 35.84 -45.49 TS 35 1 0
1855 NA NA 18:00:00 TS 35.90 -45.50 1350 1350 _____________O -1 35.90 -45.50 TS 35 1 0
1855 NA NA 21:00:00 TS 35.95 -45.50 1340 1340 _____________P -1 35.95 -45.50 TS 35 1 0
1855 NA NA 1855-10-04 00:00:00 TS 36.00 -45.50 1340 1340 _____________O -1 36.00 -45.50 TS 35 1 0
1855 NA NA 03:00:00 TS 36.05 -45.50 1330 1330 _____________P -1 36.05 -45.50 TS 32 1 0
1855 NA NA 06:00:00 TS 36.10 -45.50 1330 1330 _____________O -1 36.10 -45.50 TD 30 1 0
1855 NA NA 09:00:00 TS 36.15 -45.50 1320 1320 _____________P -1 36.15 -45.50 TD 30 1 0
1855 NA NA 12:00:00 TS 36.20 -45.50 1320 1320 _____________O -1 36.20 -45.50 TD 30 1 0
1855 NA NA 15:00:00 TS 36.25 -45.49 1310 1310 _____________P -1 36.25 -45.49 TD 30 1 0
1855 NA NA 18:00:00 TS 36.30 -45.50 1310 1310 _____________O -1 36.30 -45.50 TD 30 1 343
1855 NA NA 21:00:00 TS 36.35 -45.55 1300 1296 _____________P -1 36.35 -45.55 TD 30 1 323
1855 NA NA 1855-10-05 00:00:00 TS 36.40 -45.60 1296 1296 _____________O -1 36.40 -45.60 TD 30 1 343
1855 NA NA 03:00:00 TS 36.45 -45.60 1286 1286 _____________P -1 36.45 -45.60 TD 32 1 0
1855 NA NA 06:00:00 TS 36.50 -45.60 1286 1276 _____________O -1 36.50 -45.60 TS 35 1 339
1855 NA NA 09:00:00 TS 36.57 -45.65 1276 1272 _____________P -1 36.57 -45.65 TS 35 1 323
1855 NA NA 12:00:00 TS 36.60 -45.70 1272 1272 _____________O -1 36.60 -45.70 TS 35 1 213
1855 NA NA 15:00:00 TS 36.51 -45.70 1282 1282 _____________P -1 36.51 -45.70 TS 35 2 172
1855 NA NA 18:00:00 TS 36.40 -45.70 1292 1292 _____________O -1 36.40 -45.70 TS 35 2 193
1855 NA NA 21:00:00 TS 36.34 -45.75 1298 1298 _____________P -1 36.34 -45.75 TS 35 1 217
1855 NA NA 1855-10-06 00:00:00 TS 36.30 -45.80 1298 1298 _____________O -1 36.30 -45.80 TS 35 1 197
1855 NA NA 03:00:00 TS 36.25 -45.81 1298 1308 _____________P -1 36.25 -45.81 TS 40 1 0
1855 NA NA 06:00:00 TS 36.20 -45.80 1308 1308 _____________O -1 36.20 -45.80 TS 45 1 0
1855 NA NA 09:00:00 TS 36.16 -45.79 1308 1308 _____________P -1 36.16 -45.79 TS 45 1 0
1855 NA NA 12:00:00 TS 36.10 -45.80 1318 1318 _____________O -1 36.10 -45.80 TS 45 2 195
1855 NA NA 15:00:00 TS 36.00 -45.85 1325 1325 _____________P -1 36.00 -45.85 TS 45 2 203
1855 NA NA 18:00:00 TS 35.90 -45.90 1335 1335 _____________O -1 35.90 -45.90 TS 45 2 192
1855 NA NA 21:00:00 TS 35.85 -45.90 1345 1345 _____________P -1 35.85 -45.90 TS 45 1 0
1855 NA NA 1855-10-07 00:00:00 TS 35.80 -45.90 1345 1345 _____________O -1 35.80 -45.90 TS 45 2 192
1855 NA NA 03:00:00 TS 35.70 -45.95 1351 1351 _____________P -1 35.70 -45.95 TS 50 2 203
1855 NA NA 06:00:00 TS 35.60 -46.00 1362 1362 _____________O -1 35.60 -46.00 TS 55 2 192
1855 NA NA 09:00:00 TS 35.55 -46.01 1362 1372 _____________P -1 35.55 -46.01 TS 55 1 0
1855 NA NA 12:00:00 TS 35.50 -46.00 1372 1372 _____________O -1 35.50 -46.00 TS 55 2 0
1855 NA NA 15:00:00 TS 35.40 -46.00 1382 1382 _____________P -1 35.40 -46.00 TS 55 2 172
1855 NA NA 18:00:00 TS 35.30 -46.00 1392 1392 _____________O -1 35.30 -46.00 TS 55 2 0
1855 NA NA 21:00:00 TS 35.25 -46.00 1392 1392 _____________P -1 35.25 -46.00 TS 55 1 0
1855 NA NA 1855-10-08 00:00:00 TS 35.20 -46.00 1403 1403 _____________O -1 35.20 -46.00 TS 55 2 0
1855 NA NA 03:00:00 TS 35.10 -46.00 1413 1413 _____________P -1 35.10 -46.00 TS 55 2 172
1855 NA NA 06:00:00 TS 35.00 -46.00 1423 1423 _____________O -1 35.00 -46.00 TS 55 2 0
1855 NA NA 09:00:00 TS 34.95 -46.00 1423 1423 _____________P -1 34.95 -46.00 TS 55 1 0
1855 NA NA 12:00:00 TS 34.90 -46.00 1433 1433 _____________O -1 34.90 -46.00 TS 55 1 177
1855 NA NA 15:00:00 TS 34.81 -46.00 1444 1444 _____________P -1 34.81 -46.00 TS 55 2 172
1855 NA NA 18:00:00 TS 34.70 -46.00 1454 1454 _____________O -1 34.70 -46.00 TS 55 2 172
1855 NA NA 21:00:00 TS 34.60 -46.00 1464 1464 _____________P -1 34.60 -46.00 TS 55 2 172
1855 NA NA 1855-10-09 00:00:00 TS 34.50 -46.00 1475 1475 _____________O -1 34.50 -46.00 TS 55 2 172
1855 NA NA 03:00:00 TS 34.39 -46.00 1485 1485 _____________P -1 34.39 -46.00 TS 55 2 172
1855 NA NA 06:00:00 TS 34.30 -46.00 1495 1495 _____________O -1 34.30 -46.00 TS 55 1 177
1855 NA NA 09:00:00 TS 34.25 -46.00 1495 1495 _____________P -1 34.25 -46.00 TS 55 1 0
1855 NA NA 12:00:00 TS 34.20 -46.00 1506 1506 _____________O -1 34.20 -46.00 TS 55 2 0
1855 NA NA 15:00:00 TS 34.10 -46.00 1516 1516 _____________P -1 34.10 -46.00 TS 55 2 172
1855 NA NA 18:00:00 TS 34.00 -46.00 1526 1526 _____________O -1 34.00 -46.00 TS 55 2 0
1855 NA NA 21:00:00 TS 33.95 -46.00 1526 1526 _____________P -1 33.95 -46.00 TS 55 1 0
1855 NA NA 1855-10-10 00:00:00 TS 33.90 -46.00 1537 1537 _____________O -1 33.90 -46.00 TS 55 2 0
1855 NA NA 03:00:00 TS 33.80 -46.00 1547 1547 _____________P -1 33.80 -46.00 TS 55 2 172
1855 NA NA 06:00:00 TS 33.70 -46.00 1558 1558 _____________O -1 33.70 -46.00 TS 55 1 190
1855 NA NA 09:00:00 TS 33.66 -46.02 1558 1558 _____________P -1 33.66 -46.02 TS 55 1 0
1855 NA NA 12:00:00 TS 33.60 -46.00 1568 1568 _____________O -1 33.60 -46.00 TS 55 3 161
1855 NA NA 15:00:00 TS 33.42 -45.91 1592 1592 _____________P -1 33.42 -45.91 TS 55 4 157
1855 NA NA 18:00:00 TS 33.20 -45.80 1616 1616 _____________O -1 33.20 -45.80 TS 55 5 157
1855 NA NA 21:00:00 TS 33.00 -45.70 1641 1641 _____________P -1 33.00 -45.70 TS 55 4 157
1855 NA NA 1855-10-11 00:00:00 TS 32.80 -45.60 1665 1665 _____________O -1 32.80 -45.60 TS 55 4 157
1855 NA NA 03:00:00 TS 32.61 -45.50 1689 1689 _____________P -1 32.61 -45.50 TS 55 4 157
1855 NA NA 06:00:00 TS 32.40 -45.40 1713 1713 _____________O -1 32.40 -45.40 TS 55 5 158
1855 NA NA 09:00:00 TS 32.15 -45.28 1737 1737 _____________P -1 32.15 -45.28 TS 55 5 161
1855 NA NA 12:00:00 TS 31.90 -45.20 1772 1772 _____________O -1 31.90 -45.20 TS 55 5 169
1855 NA NA 15:00:00 TS 31.69 -45.19 1793 1793 _____________P -1 31.69 -45.19 TS 55 4 0
1855 NA NA 18:00:00 TS 31.50 -45.20 1814 1814 _____________O -1 31.50 -45.20 TS 55 4 0
1855 NA NA 21:00:00 TS 31.30 -45.21 1835 1835 _____________P -1 31.30 -45.21 TS 55 4 0
1855 NA NA 1855-10-12 00:00:00 TS 31.10 -45.20 1856 1856 _____________O -1 31.10 -45.20 TS 55 4 172
1855 NA NA 03:00:00 TS 30.90 -45.15 1880 1880 _____________P -1 30.90 -45.15 TS 55 4 168
1855 NA NA 06:00:00 TS 30.70 -45.10 1901 1901 _____________O -1 30.70 -45.10 TS 55 4 175
1855 NA NA 09:00:00 TS 30.49 -45.11 1922 1922 _____________P -1 30.49 -45.11 TS 55 4 0
1855 NA NA 12:00:00 TS 30.30 -45.10 1943 1943 _____________O -1 30.30 -45.10 TS 55 4 166
1855 NA NA 15:00:00 TS 30.14 -45.01 1967 1967 _____________P -1 30.14 -45.01 TS 55 3 150
1855 NA NA 18:00:00 TS 30.00 -44.90 1981 1981 _____________O -1 30.00 -44.90 TS 55 3 149
1855 NA NA 21:00:00 TS 29.90 -44.84 1995 1995 _____________P -1 29.90 -44.84 TS 55 2 155
1855 NA NA 1855-10-13 00:00:00 TS 29.80 -44.80 2005 2005 _____________O -1 29.80 -44.80 TS 55 3 162
1855 NA NA 03:00:00 TS 29.65 -44.75 2019 2030 _____________P -1 29.65 -44.75 TS 55 3 164
1855 NA NA 06:00:00 TS 29.50 -44.70 2040 2040 _____________O -1 29.50 -44.70 TS 55 3 164
1855 NA NA 09:00:00 TS 29.36 -44.66 2051 2051 _____________P -1 29.36 -44.66 TS 55 2 155
1855 NA NA 12:00:00 TS 29.30 -44.60 2064 2057 _____________O -1 29.30 -44.60 TS 55 1 83
1855 NA NA 15:00:00 TS 29.38 -44.51 2057 2050 _____________P -1 29.38 -44.51 TS 55 3 41
1855 NA NA 18:00:00 TS 29.50 -44.40 2050 2042 _____________O -1 29.50 -44.40 TS 55 3 46
1855 NA NA 21:00:00 TS 29.56 -44.29 2042 2042 _____________P -1 29.56 -44.29 TS 55 2 60
1855 NA NA 1855-10-14 00:00:00 TS 29.60 -44.20 2046 2046 _____________O -1 29.60 -44.20 TS 55 2 54
1855 NA NA 03:00:00 TS 29.65 -44.14 2049 2038 _____________P -1 29.65 -44.14 TS 57 1 40
1855 NA NA 06:00:00 TS 29.70 -44.10 2038 2038 _____________O -1 29.70 -44.10 TS 60 1 41
1855 NA NA 09:00:00 TS 29.73 -44.06 2038 2031 _____________P -1 29.73 -44.06 TS 60 1 40
1855 NA NA 12:00:00 TS 29.80 -44.00 2031 2021 _____________O -1 29.80 -44.00 TS 60 2 34
1855 NA NA 15:00:00 TS 29.94 -43.90 2024 2007 _____________P -1 29.94 -43.90 TS 65 3 30
1855 NA NA 18:00:00 TS 30.10 -43.80 2007 1996 _____________O -1 30.10 -43.80 HU 70 3 28
1855 NA NA 21:00:00 TS 30.20 -43.74 2000 1989 _____________P -1 30.20 -43.74 HU 72 2 25
1855 NA NA 1855-10-15 00:00:00 TS 30.30 -43.70 1989 1979 _____________O -1 30.30 -43.70 HU 75 3 18
1855 NA NA 03:00:00 TS 30.45 -43.65 1969 1962 _____________P -1 30.45 -43.65 HU 77 3 16
1855 NA NA 06:00:00 TS 30.60 -43.60 1962 1952 _____________O -1 30.60 -43.60 HU 80 3 19
1855 NA NA 09:00:00 TS 30.69 -43.56 1952 1945 _____________P -1 30.69 -43.56 HU 80 2 25
1855 NA NA 12:00:00 TS 30.80 -43.50 1945 1928 _____________O -1 30.80 -43.50 HU 80 3 25
1855 NA NA 15:00:00 TS 30.99 -43.40 1928 1911 _____________P -1 30.99 -43.40 HU 80 4 23
1855 NA NA 18:00:00 TS 31.20 -43.30 1911 1901 _____________O -1 31.20 -43.30 HU 80 4 21
1855 NA NA 21:00:00 TS 31.36 -43.24 1895 1885 _____________P -1 31.36 -43.24 HU 80 3 16
1855 NA NA 1855-10-16 00:00:00 TS 31.50 -43.20 1885 1874 _____________O -1 31.50 -43.20 HU 80 3 16
1855 NA NA 03:00:00 TS 31.65 -43.15 1868 1858 _____________P -1 31.65 -43.15 HU 80 3 16
1855 NA NA 06:00:00 TS 31.80 -43.10 1858 1848 _____________O -1 31.80 -43.10 HU 80 3 6
1855 NA NA 09:00:00 TS 31.95 -43.11 1848 1828 _____________P -1 31.95 -43.11 HU 80 3 16
1855 NA NA 12:00:00 TS 32.10 -43.00 1832 1826 _____________O -1 32.10 -43.00 HU 80 5 55
1855 NA NA 15:00:00 TS 32.25 -42.61 1828 1828 _____________P -1 32.25 -42.61 HU 80 8 68
1855 NA NA 18:00:00 TS 32.40 -42.10 1839 1838 _____________O -1 32.40 -42.10 HU 80 9 70
1855 NA NA 21:00:00 TS 32.55 -41.65 1851 1842 _____________P -1 32.55 -41.65 HU 77 8 68
1855 NA NA 1855-10-17 00:00:00 TS 32.70 -41.20 1850 1850 _____________O -1 32.70 -41.20 HU 75 8 68
1855 NA NA 03:00:00 TS 32.85 -40.75 1864 1855 _____________P -1 32.85 -40.75 HU 75 8 68
1855 NA NA 06:00:00 TS 33.00 -40.30 1865 1865 _____________O -1 33.00 -40.30 HU 75 8 71
1855 NA NA 09:00:00 TS 33.13 -39.81 1880 1876 _____________P -1 33.13 -39.81 HU 72 8 68
1855 NA NA 12:00:00 TS 33.30 -39.40 1882 1865 _____________O -1 33.30 -39.40 HU 70 7 51
1855 NA NA 15:00:00 TS 33.58 -39.15 1865 1849 _____________P -1 33.58 -39.15 HU 70 7 29
1855 NA NA 18:00:00 TS 33.90 -39.00 1849 1827 _____________O -1 33.90 -39.00 HU 70 7 22
1855 NA NA 21:00:00 TS 34.20 -38.85 1832 1811 _____________P -1 34.20 -38.85 HU 65 7 22
1855 NA NA 1855-10-18 00:00:00 TS 34.50 -38.70 1811 1796 _____________O -1 34.50 -38.70 TS 60 7 26
1855 NA NA 03:00:00 TS 34.80 -38.50 1796 1782 _____________P -1 34.80 -38.50 TS 60 7 29
1855 NA NA 06:00:00 TS 35.10 -38.30 1782 1771 _____________O -1 35.10 -38.30 TS 60 6 29
1855 NA NA 09:00:00 TS 35.33 -38.13 1776 1749 _____________P -1 35.33 -38.13 TS 55 6 22
1855 NA NA 12:00:00 TS 35.70 -38.00 1749 1705 _____________O -1 35.70 -38.00 TS 50 11 11
1855 NA NA 15:00:00 TS 36.39 -37.89 1697 1640 _____________P -1 36.39 -37.89 TS 45 15 6
1855 NA NA 18:00:00 TS 37.20 -37.80 1640 1591 _____________O -1 37.20 -37.80 TS 40 16 4
1855 NA NA 21:00:00 TS 37.93 -37.74 1591 1539 _____________P -1 37.93 -37.74 TS 37 14 3
1855 NA NA 1855-10-19 00:00:00 TS 38.60 -37.70 1539 _____________O -1 38.60 -37.70 TS 35 13 4